sensor_id;sensor_type;location;lat;lon;timestamp;P1;durP1;ratioP1;P2;durP2;ratioP2
7729;SDS011;3908;52.310;7.230;2022-11-20T00:01:20;46.77;;;24.27;;
7729;SDS011;3908;52.310;7.230;2022-11-20T00:04:10;46.90;;;25.30;;
7729;SDS011;3908;52.310;7.230;2022-11-20T00:06:57;50.63;;;25.83;;
7729;SDS011;3908;52.310;7.230;2022-11-20T00:09:44;44.63;;;25.93;;
7729;SDS011;3908;52.310;7.230;2022-11-20T00:12:31;48.93;;;24.93;;
7729;SDS011;3908;52.310;7.230;2022-11-20T00:15:18;45.33;;;24.87;;
7729;SDS011;3908;52.310;7.230;2022-11-20T00:18:05;45.53;;;25.37;;
7729;SDS011;3908;52.310;7.230;2022-11-20T00:20:59;47.13;;;23.30;;
7729;SDS011;3908;52.310;7.230;2022-11-20T00:23:47;40.90;;;22.80;;
7729;SDS011;3908;52.310;7.230;2022-11-20T00:26:35;41.73;;;21.77;;
7729;SDS011;3908;52.310;7.230;2022-11-20T00:29:22;39.20;;;19.83;;
7729;SDS011;3908;52.310;7.230;2022-11-20T00:32:09;41.67;;;20.10;;
7729;SDS011;3908;52.310;7.230;2022-11-20T00:34:56;34.97;;;19.20;;
7729;SDS011;3908;52.310;7.230;2022-11-20T00:37:44;39.30;;;19.60;;
7729;SDS011;3908;52.310;7.230;2022-11-20T00:40:31;41.57;;;20.67;;
7729;SDS011;3908;52.310;7.230;2022-11-20T00:43:18;37.37;;;19.73;;
7729;SDS011;3908;52.310;7.230;2022-11-20T00:46:05;38.17;;;18.53;;
7729;SDS011;3908;52.310;7.230;2022-11-20T00:48:54;34.77;;;19.03;;
7729;SDS011;3908;52.310;7.230;2022-11-20T00:51:41;30.30;;;17.33;;
7729;SDS011;3908;52.310;7.230;2022-11-20T00:54:29;33.63;;;18.50;;
7729;SDS011;3908;52.310;7.230;2022-11-20T00:57:16;37.60;;;17.50;;
7729;SDS011;3908;52.310;7.230;2022-11-20T01:00:04;20.50;;;12.53;;
7729;SDS011;3908;52.310;7.230;2022-11-20T01:02:52;20.60;;;11.67;;
7729;SDS011;3908;52.310;7.230;2022-11-20T01:05:39;18.43;;;11.33;;
7729;SDS011;3908;52.310;7.230;2022-11-20T01:08:28;24.67;;;12.40;;
7729;SDS011;3908;52.310;7.230;2022-11-20T01:11:18;22.33;;;12.97;;
7729;SDS011;3908;52.310;7.230;2022-11-20T01:14:07;19.30;;;12.27;;
7729;SDS011;3908;52.310;7.230;2022-11-20T01:16:56;17.80;;;11.80;;
7729;SDS011;3908;52.310;7.230;2022-11-20T01:19:43;21.57;;;11.77;;
7729;SDS011;3908;52.310;7.230;2022-11-20T01:22:30;23.00;;;12.30;;
7729;SDS011;3908;52.310;7.230;2022-11-20T01:25:17;23.20;;;13.70;;
7729;SDS011;3908;52.310;7.230;2022-11-20T01:28:05;23.73;;;14.80;;
7729;SDS011;3908;52.310;7.230;2022-11-20T01:30:52;24.10;;;15.13;;
7729;SDS011;3908;52.310;7.230;2022-11-20T01:33:39;25.83;;;15.20;;
7729;SDS011;3908;52.310;7.230;2022-11-20T01:36:28;27.73;;;15.23;;
7729;SDS011;3908;52.310;7.230;2022-11-20T01:39:17;24.57;;;14.47;;
7729;SDS011;3908;52.310;7.230;2022-11-20T01:42:07;27.73;;;15.20;;
7729;SDS011;3908;52.310;7.230;2022-11-20T01:48:50;27.80;;;15.10;;
7729;SDS011;3908;52.310;7.230;2022-11-20T01:51:42;23.53;;;14.13;;
7729;SDS011;3908;52.310;7.230;2022-11-20T01:54:35;19.83;;;11.30;;
7729;SDS011;3908;52.310;7.230;2022-11-20T01:57:25;17.83;;;11.33;;
7729;SDS011;3908;52.310;7.230;2022-11-20T02:00:16;18.13;;;11.30;;
7729;SDS011;3908;52.310;7.230;2022-11-20T02:03:06;18.80;;;12.23;;
7729;SDS011;3908;52.310;7.230;2022-11-20T02:05:57;21.00;;;12.20;;
7729;SDS011;3908;52.310;7.230;2022-11-20T02:08:51;16.27;;;11.07;;
7729;SDS011;3908;52.310;7.230;2022-11-20T02:11:38;19.87;;;11.43;;
7729;SDS011;3908;52.310;7.230;2022-11-20T02:14:25;19.23;;;12.30;;
7729;SDS011;3908;52.310;7.230;2022-11-20T02:17:12;22.83;;;12.37;;
7729;SDS011;3908;52.310;7.230;2022-11-20T02:19:59;22.90;;;12.53;;
7729;SDS011;3908;52.310;7.230;2022-11-20T02:22:48;22.17;;;11.97;;
7729;SDS011;3908;52.310;7.230;2022-11-20T02:25:42;22.53;;;13.13;;
7729;SDS011;3908;52.310;7.230;2022-11-20T02:28:32;18.97;;;12.60;;
7729;SDS011;3908;52.310;7.230;2022-11-20T02:31:19;19.87;;;11.50;;
7729;SDS011;3908;52.310;7.230;2022-11-20T02:34:06;24.03;;;12.17;;
7729;SDS011;3908;52.310;7.230;2022-11-20T02:36:53;19.33;;;11.80;;
7729;SDS011;3908;52.310;7.230;2022-11-20T02:39:40;17.50;;;10.43;;
7729;SDS011;3908;52.310;7.230;2022-11-20T02:42:29;17.60;;;11.83;;
7729;SDS011;3908;52.310;7.230;2022-11-20T02:45:16;19.37;;;11.40;;
7729;SDS011;3908;52.310;7.230;2022-11-20T02:48:05;20.13;;;11.63;;
7729;SDS011;3908;52.310;7.230;2022-11-20T02:50:54;19.87;;;11.27;;
7729;SDS011;3908;52.310;7.230;2022-11-20T02:53:41;21.13;;;11.67;;
7729;SDS011;3908;52.310;7.230;2022-11-20T02:56:31;22.57;;;12.23;;
7729;SDS011;3908;52.310;7.230;2022-11-20T02:59:20;20.07;;;11.60;;
7729;SDS011;3908;52.310;7.230;2022-11-20T03:02:07;20.30;;;11.80;;
7729;SDS011;3908;52.310;7.230;2022-11-20T03:04:54;18.87;;;11.27;;
7729;SDS011;3908;52.310;7.230;2022-11-20T03:07:41;20.07;;;11.60;;
7729;SDS011;3908;52.310;7.230;2022-11-20T03:10:29;20.53;;;12.00;;
7729;SDS011;3908;52.310;7.230;2022-11-20T03:13:16;20.87;;;11.93;;
7729;SDS011;3908;52.310;7.230;2022-11-20T03:16:09;18.73;;;10.90;;
7729;SDS011;3908;52.310;7.230;2022-11-20T03:18:57;24.07;;;10.77;;
7729;SDS011;3908;52.310;7.230;2022-11-20T03:21:45;18.00;;;9.80;;
7729;SDS011;3908;52.310;7.230;2022-11-20T03:24:32;19.53;;;11.73;;
7729;SDS011;3908;52.310;7.230;2022-11-20T03:27:19;23.60;;;13.17;;
7729;SDS011;3908;52.310;7.230;2022-11-20T03:30:06;20.93;;;12.60;;
7729;SDS011;3908;52.310;7.230;2022-11-20T03:32:58;21.37;;;12.83;;
7729;SDS011;3908;52.310;7.230;2022-11-20T03:35:45;24.10;;;12.97;;
7729;SDS011;3908;52.310;7.230;2022-11-20T03:38:32;21.20;;;12.53;;
7729;SDS011;3908;52.310;7.230;2022-11-20T03:41:20;22.20;;;12.30;;
7729;SDS011;3908;52.310;7.230;2022-11-20T03:44:08;21.37;;;12.67;;
7729;SDS011;3908;52.310;7.230;2022-11-20T03:46:57;27.83;;;12.73;;
7729;SDS011;3908;52.310;7.230;2022-11-20T03:49:45;20.73;;;11.13;;
7729;SDS011;3908;52.310;7.230;2022-11-20T03:52:32;24.50;;;12.63;;
7729;SDS011;3908;52.310;7.230;2022-11-20T03:55:19;22.17;;;12.73;;
7729;SDS011;3908;52.310;7.230;2022-11-20T03:58:06;23.60;;;11.70;;
7729;SDS011;3908;52.310;7.230;2022-11-20T04:00:53;26.53;;;11.07;;
7729;SDS011;3908;52.310;7.230;2022-11-20T04:03:40;19.90;;;10.53;;
7729;SDS011;3908;52.310;7.230;2022-11-20T04:06:32;21.40;;;10.70;;
7729;SDS011;3908;52.310;7.230;2022-11-20T04:09:20;20.40;;;10.93;;
7729;SDS011;3908;52.310;7.230;2022-11-20T04:12:07;18.20;;;10.23;;
7729;SDS011;3908;52.310;7.230;2022-11-20T04:14:54;16.80;;;9.80;;
7729;SDS011;3908;52.310;7.230;2022-11-20T04:17:41;15.07;;;9.27;;
7729;SDS011;3908;52.310;7.230;2022-11-20T04:20:28;16.70;;;9.30;;
7729;SDS011;3908;52.310;7.230;2022-11-20T04:23:19;18.40;;;10.37;;
7729;SDS011;3908;52.310;7.230;2022-11-20T04:26:07;16.73;;;9.53;;
7729;SDS011;3908;52.310;7.230;2022-11-20T04:28:55;15.87;;;9.80;;
7729;SDS011;3908;52.310;7.230;2022-11-20T04:31:42;13.40;;;9.33;;
7729;SDS011;3908;52.310;7.230;2022-11-20T04:34:29;16.60;;;9.13;;
7729;SDS011;3908;52.310;7.230;2022-11-20T04:37:16;14.77;;;8.77;;
7729;SDS011;3908;52.310;7.230;2022-11-20T04:40:05;16.53;;;9.13;;
7729;SDS011;3908;52.310;7.230;2022-11-20T04:42:53;14.50;;;8.07;;
7729;SDS011;3908;52.310;7.230;2022-11-20T04:45:40;13.93;;;9.33;;
7729;SDS011;3908;52.310;7.230;2022-11-20T04:48:28;12.40;;;7.57;;
7729;SDS011;3908;52.310;7.230;2022-11-20T04:51:15;14.10;;;8.27;;
7729;SDS011;3908;52.310;7.230;2022-11-20T04:54:02;16.37;;;8.83;;
7729;SDS011;3908;52.310;7.230;2022-11-20T04:56:51;16.60;;;9.77;;
7729;SDS011;3908;52.310;7.230;2022-11-20T04:59:38;17.37;;;10.40;;
7729;SDS011;3908;52.310;7.230;2022-11-20T05:02:25;14.80;;;9.33;;
7729;SDS011;3908;52.310;7.230;2022-11-20T05:05:12;19.67;;;10.07;;
7729;SDS011;3908;52.310;7.230;2022-11-20T05:07:59;16.57;;;10.17;;
7729;SDS011;3908;52.310;7.230;2022-11-20T05:10:46;14.07;;;8.83;;
7729;SDS011;3908;52.310;7.230;2022-11-20T05:13:37;15.07;;;9.90;;
7729;SDS011;3908;52.310;7.230;2022-11-20T05:16:25;15.47;;;10.07;;
7729;SDS011;3908;52.310;7.230;2022-11-20T05:19:12;15.23;;;9.07;;
7729;SDS011;3908;52.310;7.230;2022-11-20T05:21:59;16.33;;;8.80;;
7729;SDS011;3908;52.310;7.230;2022-11-20T05:24:46;15.77;;;9.87;;
7729;SDS011;3908;52.310;7.230;2022-11-20T05:27:34;15.27;;;9.60;;
7729;SDS011;3908;52.310;7.230;2022-11-20T05:30:22;16.70;;;9.40;;
7729;SDS011;3908;52.310;7.230;2022-11-20T05:33:09;19.50;;;10.10;;
7729;SDS011;3908;52.310;7.230;2022-11-20T05:35:57;15.40;;;9.17;;
7729;SDS011;3908;52.310;7.230;2022-11-20T05:38:44;16.33;;;9.90;;
7729;SDS011;3908;52.310;7.230;2022-11-20T05:41:32;18.60;;;9.90;;
7729;SDS011;3908;52.310;7.230;2022-11-20T05:44:19;15.97;;;8.97;;
7729;SDS011;3908;52.310;7.230;2022-11-20T05:47:08;16.37;;;9.63;;
7729;SDS011;3908;52.310;7.230;2022-11-20T05:49:54;15.63;;;9.20;;
7729;SDS011;3908;52.310;7.230;2022-11-20T05:52:41;14.37;;;8.70;;
7729;SDS011;3908;52.310;7.230;2022-11-20T05:55:28;16.97;;;8.67;;
7729;SDS011;3908;52.310;7.230;2022-11-20T05:58:15;14.70;;;9.60;;
7729;SDS011;3908;52.310;7.230;2022-11-20T06:01:03;19.60;;;9.80;;
7729;SDS011;3908;52.310;7.230;2022-11-20T06:03:53;16.97;;;10.20;;
7729;SDS011;3908;52.310;7.230;2022-11-20T06:06:40;14.97;;;9.33;;
7729;SDS011;3908;52.310;7.230;2022-11-20T06:09:27;15.00;;;10.33;;
7729;SDS011;3908;52.310;7.230;2022-11-20T06:12:14;17.13;;;9.43;;
7729;SDS011;3908;52.310;7.230;2022-11-20T06:15:01;16.47;;;10.83;;
7729;SDS011;3908;52.310;7.230;2022-11-20T06:17:51;16.40;;;8.67;;
7729;SDS011;3908;52.310;7.230;2022-11-20T06:20:40;14.17;;;8.13;;
7729;SDS011;3908;52.310;7.230;2022-11-20T06:23:27;14.80;;;9.13;;
7729;SDS011;3908;52.310;7.230;2022-11-20T06:26:16;21.13;;;9.80;;
7729;SDS011;3908;52.310;7.230;2022-11-20T06:29:04;22.23;;;9.50;;
7729;SDS011;3908;52.310;7.230;2022-11-20T06:31:51;19.80;;;10.47;;
7729;SDS011;3908;52.310;7.230;2022-11-20T06:34:38;17.53;;;10.40;;
7729;SDS011;3908;52.310;7.230;2022-11-20T06:37:26;16.83;;;10.80;;
7729;SDS011;3908;52.310;7.230;2022-11-20T06:40:15;19.00;;;10.23;;
7729;SDS011;3908;52.310;7.230;2022-11-20T06:43:02;19.37;;;10.17;;
7729;SDS011;3908;52.310;7.230;2022-11-20T06:45:51;15.10;;;10.20;;
7729;SDS011;3908;52.310;7.230;2022-11-20T06:48:38;16.60;;;9.93;;
7729;SDS011;3908;52.310;7.230;2022-11-20T06:51:26;22.07;;;11.10;;
7729;SDS011;3908;52.310;7.230;2022-11-20T06:54:14;20.80;;;10.43;;
7729;SDS011;3908;52.310;7.230;2022-11-20T06:57:01;16.77;;;9.43;;
7729;SDS011;3908;52.310;7.230;2022-11-20T06:59:48;15.70;;;9.40;;
7729;SDS011;3908;52.310;7.230;2022-11-20T07:02:35;16.70;;;10.20;;
7729;SDS011;3908;52.310;7.230;2022-11-20T07:05:22;16.80;;;9.93;;
7729;SDS011;3908;52.310;7.230;2022-11-20T07:08:09;23.20;;;10.70;;
7729;SDS011;3908;52.310;7.230;2022-11-20T07:10:58;20.50;;;9.87;;
7729;SDS011;3908;52.310;7.230;2022-11-20T07:13:46;14.50;;;8.70;;
7729;SDS011;3908;52.310;7.230;2022-11-20T07:16:33;19.67;;;10.30;;
7729;SDS011;3908;52.310;7.230;2022-11-20T07:19:20;19.37;;;10.10;;
7729;SDS011;3908;52.310;7.230;2022-11-20T07:22:07;16.33;;;9.97;;
7729;SDS011;3908;52.310;7.230;2022-11-20T07:24:54;19.20;;;10.53;;
7729;SDS011;3908;52.310;7.230;2022-11-20T07:27:42;18.83;;;10.70;;
7729;SDS011;3908;52.310;7.230;2022-11-20T07:30:29;17.27;;;10.37;;
7729;SDS011;3908;52.310;7.230;2022-11-20T07:33:17;20.63;;;10.87;;
7729;SDS011;3908;52.310;7.230;2022-11-20T07:36:04;18.23;;;10.17;;
7729;SDS011;3908;52.310;7.230;2022-11-20T07:38:51;20.17;;;9.90;;
7729;SDS011;3908;52.310;7.230;2022-11-20T07:41:39;15.93;;;10.40;;
7729;SDS011;3908;52.310;7.230;2022-11-20T07:44:28;18.50;;;10.67;;
7729;SDS011;3908;52.310;7.230;2022-11-20T07:47:15;18.37;;;10.37;;
7729;SDS011;3908;52.310;7.230;2022-11-20T07:50:02;19.83;;;10.67;;
7729;SDS011;3908;52.310;7.230;2022-11-20T07:52:49;23.67;;;13.97;;
7729;SDS011;3908;52.310;7.230;2022-11-20T07:55:37;27.13;;;14.33;;
7729;SDS011;3908;52.310;7.230;2022-11-20T07:58:24;22.70;;;13.53;;
7729;SDS011;3908;52.310;7.230;2022-11-20T08:01:13;19.57;;;11.43;;
7729;SDS011;3908;52.310;7.230;2022-11-20T08:04:00;18.93;;;10.63;;
7729;SDS011;3908;52.310;7.230;2022-11-20T08:06:47;20.43;;;12.40;;
7729;SDS011;3908;52.310;7.230;2022-11-20T08:09:35;23.03;;;13.50;;
7729;SDS011;3908;52.310;7.230;2022-11-20T08:12:22;22.33;;;13.10;;
7729;SDS011;3908;52.310;7.230;2022-11-20T08:15:26;20.57;;;11.83;;
7729;SDS011;3908;52.310;7.230;2022-11-20T08:18:14;22.33;;;13.30;;
7729;SDS011;3908;52.310;7.230;2022-11-20T08:21:02;26.60;;;12.77;;
7729;SDS011;3908;52.310;7.230;2022-11-20T08:23:50;20.47;;;13.50;;
7729;SDS011;3908;52.310;7.230;2022-11-20T08:26:37;21.70;;;12.03;;
7729;SDS011;3908;52.310;7.230;2022-11-20T08:29:25;22.17;;;12.77;;
7729;SDS011;3908;52.310;7.230;2022-11-20T08:32:13;21.37;;;12.23;;
7729;SDS011;3908;52.310;7.230;2022-11-20T08:35:01;23.90;;;12.60;;
7729;SDS011;3908;52.310;7.230;2022-11-20T08:37:48;21.33;;;12.83;;
7729;SDS011;3908;52.310;7.230;2022-11-20T08:40:36;20.80;;;11.87;;
7729;SDS011;3908;52.310;7.230;2022-11-20T08:43:23;20.80;;;12.47;;
7729;SDS011;3908;52.310;7.230;2022-11-20T08:46:10;21.00;;;12.03;;
7729;SDS011;3908;52.310;7.230;2022-11-20T08:48:57;23.60;;;13.20;;
7729;SDS011;3908;52.310;7.230;2022-11-20T08:51:45;24.33;;;14.47;;
7729;SDS011;3908;52.310;7.230;2022-11-20T08:54:37;26.73;;;14.37;;
7729;SDS011;3908;52.310;7.230;2022-11-20T08:57:23;25.10;;;14.30;;
7729;SDS011;3908;52.310;7.230;2022-11-20T09:00:11;24.47;;;14.40;;
7729;SDS011;3908;52.310;7.230;2022-11-20T09:02:59;25.33;;;15.13;;
7729;SDS011;3908;52.310;7.230;2022-11-20T09:05:46;24.80;;;14.37;;
7729;SDS011;3908;52.310;7.230;2022-11-20T09:08:34;21.30;;;13.80;;
7729;SDS011;3908;52.310;7.230;2022-11-20T09:11:22;22.73;;;14.13;;
7729;SDS011;3908;52.310;7.230;2022-11-20T09:14:10;20.60;;;13.03;;
7729;SDS011;3908;52.310;7.230;2022-11-20T09:16:57;26.90;;;13.93;;
7729;SDS011;3908;52.310;7.230;2022-11-20T09:19:44;22.67;;;13.17;;
7729;SDS011;3908;52.310;7.230;2022-11-20T09:22:31;23.43;;;13.77;;
7729;SDS011;3908;52.310;7.230;2022-11-20T09:25:20;20.33;;;12.53;;
7729;SDS011;3908;52.310;7.230;2022-11-20T09:28:07;20.57;;;13.00;;
7729;SDS011;3908;52.310;7.230;2022-11-20T09:30:54;21.63;;;12.87;;
7729;SDS011;3908;52.310;7.230;2022-11-20T09:33:41;22.77;;;12.93;;
7729;SDS011;3908;52.310;7.230;2022-11-20T09:36:29;21.83;;;12.37;;
7729;SDS011;3908;52.310;7.230;2022-11-20T09:39:16;20.60;;;12.87;;
7729;SDS011;3908;52.310;7.230;2022-11-20T09:42:24;22.40;;;11.93;;
7729;SDS011;3908;52.310;7.230;2022-11-20T09:45:21;20.50;;;11.53;;
7729;SDS011;3908;52.310;7.230;2022-11-20T09:48:16;18.10;;;12.13;;
7729;SDS011;3908;52.310;7.230;2022-11-20T09:51:13;21.67;;;12.10;;
7729;SDS011;3908;52.310;7.230;2022-11-20T09:54:13;19.83;;;11.83;;
7729;SDS011;3908;52.310;7.230;2022-11-20T09:57:05;21.93;;;12.20;;
7729;SDS011;3908;52.310;7.230;2022-11-20T09:59:59;17.50;;;11.87;;
7729;SDS011;3908;52.310;7.230;2022-11-20T10:02:52;21.60;;;12.33;;
7729;SDS011;3908;52.310;7.230;2022-11-20T10:05:43;22.53;;;13.30;;
7729;SDS011;3908;52.310;7.230;2022-11-20T10:08:35;18.17;;;11.97;;
7729;SDS011;3908;52.310;7.230;2022-11-20T10:11:30;18.27;;;12.80;;
7729;SDS011;3908;52.310;7.230;2022-11-20T10:14:30;24.33;;;14.97;;
7729;SDS011;3908;52.310;7.230;2022-11-20T10:17:30;23.10;;;12.73;;
7729;SDS011;3908;52.310;7.230;2022-11-20T10:20:29;20.77;;;13.03;;
7729;SDS011;3908;52.310;7.230;2022-11-20T10:23:35;23.40;;;14.07;;
7729;SDS011;3908;52.310;7.230;2022-11-20T10:26:37;21.07;;;12.63;;
7729;SDS011;3908;52.310;7.230;2022-11-20T10:29:35;25.97;;;13.97;;
7729;SDS011;3908;52.310;7.230;2022-11-20T10:32:28;18.90;;;12.80;;
7729;SDS011;3908;52.310;7.230;2022-11-20T10:35:21;21.70;;;13.80;;
7729;SDS011;3908;52.310;7.230;2022-11-20T10:38:14;30.47;;;13.57;;
7729;SDS011;3908;52.310;7.230;2022-11-20T10:41:07;22.93;;;13.20;;
7729;SDS011;3908;52.310;7.230;2022-11-20T10:44:12;21.40;;;13.03;;
7729;SDS011;3908;52.310;7.230;2022-11-20T10:47:22;27.57;;;15.40;;
7729;SDS011;3908;52.310;7.230;2022-11-20T10:50:11;22.43;;;13.40;;
7729;SDS011;3908;52.310;7.230;2022-11-20T10:53:05;26.40;;;14.67;;
7729;SDS011;3908;52.310;7.230;2022-11-20T10:56:05;24.03;;;13.50;;
7729;SDS011;3908;52.310;7.230;2022-11-20T10:59:04;24.10;;;13.37;;
7729;SDS011;3908;52.310;7.230;2022-11-20T11:02:16;22.97;;;14.03;;
7729;SDS011;3908;52.310;7.230;2022-11-20T11:05:10;24.73;;;13.20;;
7729;SDS011;3908;52.310;7.230;2022-11-20T11:08:20;23.07;;;12.97;;
7729;SDS011;3908;52.310;7.230;2022-11-20T11:11:13;22.67;;;13.13;;
7729;SDS011;3908;52.310;7.230;2022-11-20T11:14:07;21.03;;;13.63;;
7729;SDS011;3908;52.310;7.230;2022-11-20T11:16:56;22.13;;;13.00;;
7729;SDS011;3908;52.310;7.230;2022-11-20T11:19:44;27.07;;;13.87;;
7729;SDS011;3908;52.310;7.230;2022-11-20T11:22:32;22.30;;;13.40;;
7729;SDS011;3908;52.310;7.230;2022-11-20T11:25:26;22.90;;;13.57;;
7729;SDS011;3908;52.310;7.230;2022-11-20T11:28:19;25.17;;;13.63;;
7729;SDS011;3908;52.310;7.230;2022-11-20T11:31:10;23.60;;;13.40;;
7729;SDS011;3908;52.310;7.230;2022-11-20T11:34:04;21.20;;;13.67;;
7729;SDS011;3908;52.310;7.230;2022-11-20T11:36:53;22.73;;;13.70;;
7729;SDS011;3908;52.310;7.230;2022-11-20T11:39:43;25.80;;;13.57;;
7729;SDS011;3908;52.310;7.230;2022-11-20T11:42:34;21.87;;;12.90;;
7729;SDS011;3908;52.310;7.230;2022-11-20T11:45:22;21.87;;;13.20;;
7729;SDS011;3908;52.310;7.230;2022-11-20T11:48:09;21.67;;;12.83;;
7729;SDS011;3908;52.310;7.230;2022-11-20T11:50:56;22.47;;;13.23;;
7729;SDS011;3908;52.310;7.230;2022-11-20T11:53:43;19.40;;;12.53;;
7729;SDS011;3908;52.310;7.230;2022-11-20T11:56:31;24.47;;;12.50;;
7729;SDS011;3908;52.310;7.230;2022-11-20T11:59:24;21.37;;;13.37;;
7729;SDS011;3908;52.310;7.230;2022-11-20T12:02:18;26.47;;;12.73;;
7729;SDS011;3908;52.310;7.230;2022-11-20T12:05:20;21.90;;;13.10;;
7729;SDS011;3908;52.310;7.230;2022-11-20T12:08:12;20.17;;;12.37;;
7729;SDS011;3908;52.310;7.230;2022-11-20T12:11:04;22.20;;;12.60;;
7729;SDS011;3908;52.310;7.230;2022-11-20T12:14:00;22.10;;;12.47;;
7729;SDS011;3908;52.310;7.230;2022-11-20T12:16:55;22.10;;;13.43;;
7729;SDS011;3908;52.310;7.230;2022-11-20T12:19:43;23.20;;;13.33;;
7729;SDS011;3908;52.310;7.230;2022-11-20T12:22:31;20.70;;;13.33;;
7729;SDS011;3908;52.310;7.230;2022-11-20T12:25:29;24.10;;;12.67;;
7729;SDS011;3908;52.310;7.230;2022-11-20T12:28:23;24.03;;;13.80;;
7729;SDS011;3908;52.310;7.230;2022-11-20T12:31:31;21.57;;;13.10;;
7729;SDS011;3908;52.310;7.230;2022-11-20T12:34:35;22.70;;;13.20;;
7729;SDS011;3908;52.310;7.230;2022-11-20T12:37:33;20.50;;;11.13;;
7729;SDS011;3908;52.310;7.230;2022-11-20T12:40:28;19.53;;;10.83;;
7729;SDS011;3908;52.310;7.230;2022-11-20T12:43:22;23.47;;;12.33;;
7729;SDS011;3908;52.310;7.230;2022-11-20T12:46:30;21.97;;;12.37;;
7729;SDS011;3908;52.310;7.230;2022-11-20T12:49:27;15.37;;;9.90;;
7729;SDS011;3908;52.310;7.230;2022-11-20T12:52:28;20.73;;;11.63;;
7729;SDS011;3908;52.310;7.230;2022-11-20T12:55:36;20.63;;;10.90;;
7729;SDS011;3908;52.310;7.230;2022-11-20T12:58:36;12.90;;;7.83;;
7729;SDS011;3908;52.310;7.230;2022-11-20T13:01:30;9.83;;;6.63;;
7729;SDS011;3908;52.310;7.230;2022-11-20T13:04:34;9.70;;;5.60;;
7729;SDS011;3908;52.310;7.230;2022-11-20T13:07:43;6.97;;;5.20;;
7729;SDS011;3908;52.310;7.230;2022-11-20T13:10:33;14.33;;;6.07;;
7729;SDS011;3908;52.310;7.230;2022-11-20T13:13:28;10.53;;;5.90;;
7729;SDS011;3908;52.310;7.230;2022-11-20T13:16:23;8.97;;;5.60;;
7729;SDS011;3908;52.310;7.230;2022-11-20T13:19:16;11.37;;;5.80;;
7729;SDS011;3908;52.310;7.230;2022-11-20T13:22:04;20.80;;;10.80;;
7729;SDS011;3908;52.310;7.230;2022-11-20T13:24:53;19.57;;;11.27;;
7729;SDS011;3908;52.310;7.230;2022-11-20T13:27:46;23.37;;;13.23;;
7729;SDS011;3908;52.310;7.230;2022-11-20T13:30:34;22.00;;;12.30;;
7729;SDS011;3908;52.310;7.230;2022-11-20T13:33:23;21.17;;;12.33;;
7729;SDS011;3908;52.310;7.230;2022-11-20T13:36:20;20.80;;;11.20;;
7729;SDS011;3908;52.310;7.230;2022-11-20T13:39:09;21.60;;;12.50;;
7729;SDS011;3908;52.310;7.230;2022-11-20T13:41:59;20.07;;;10.93;;
7729;SDS011;3908;52.310;7.230;2022-11-20T13:44:48;24.87;;;11.07;;
7729;SDS011;3908;52.310;7.230;2022-11-20T13:47:46;19.93;;;10.50;;
7729;SDS011;3908;52.310;7.230;2022-11-20T13:50:39;23.27;;;12.43;;
7729;SDS011;3908;52.310;7.230;2022-11-20T13:53:36;24.10;;;13.27;;
7729;SDS011;3908;52.310;7.230;2022-11-20T13:56:40;29.47;;;12.83;;
7729;SDS011;3908;52.310;7.230;2022-11-20T13:59:39;26.70;;;13.47;;
7729;SDS011;3908;52.310;7.230;2022-11-20T14:02:34;31.77;;;13.70;;
7729;SDS011;3908;52.310;7.230;2022-11-20T14:05:21;26.13;;;14.27;;
7729;SDS011;3908;52.310;7.230;2022-11-20T14:08:12;28.20;;;13.50;;
7729;SDS011;3908;52.310;7.230;2022-11-20T14:11:11;28.67;;;14.07;;
7729;SDS011;3908;52.310;7.230;2022-11-20T14:14:02;27.20;;;13.50;;
7729;SDS011;3908;52.310;7.230;2022-11-20T14:16:52;29.53;;;13.97;;
7729;SDS011;3908;52.310;7.230;2022-11-20T14:19:40;30.73;;;14.13;;
7729;SDS011;3908;52.310;7.230;2022-11-20T14:22:29;29.50;;;14.77;;
7729;SDS011;3908;52.310;7.230;2022-11-20T14:25:20;26.83;;;13.50;;
7729;SDS011;3908;52.310;7.230;2022-11-20T14:28:18;33.23;;;15.63;;
7729;SDS011;3908;52.310;7.230;2022-11-20T14:31:16;31.67;;;16.50;;
7729;SDS011;3908;52.310;7.230;2022-11-20T14:34:12;30.97;;;15.10;;
7729;SDS011;3908;52.310;7.230;2022-11-20T14:37:05;28.77;;;14.90;;
7729;SDS011;3908;52.310;7.230;2022-11-20T14:39:57;34.57;;;15.27;;
7729;SDS011;3908;52.310;7.230;2022-11-20T14:42:46;33.63;;;14.80;;
7729;SDS011;3908;52.310;7.230;2022-11-20T14:45:33;35.00;;;15.63;;
7729;SDS011;3908;52.310;7.230;2022-11-20T14:48:21;31.93;;;15.50;;
7729;SDS011;3908;52.310;7.230;2022-11-20T14:51:24;30.33;;;15.40;;
7729;SDS011;3908;52.310;7.230;2022-11-20T14:54:15;34.57;;;15.97;;
7729;SDS011;3908;52.310;7.230;2022-11-20T14:57:03;30.03;;;14.37;;
7729;SDS011;3908;52.310;7.230;2022-11-20T14:59:50;31.97;;;15.40;;
7729;SDS011;3908;52.310;7.230;2022-11-20T15:02:38;28.03;;;15.13;;
7729;SDS011;3908;52.310;7.230;2022-11-20T15:08:34;31.97;;;14.17;;
7729;SDS011;3908;52.310;7.230;2022-11-20T15:11:23;25.40;;;13.83;;
7729;SDS011;3908;52.310;7.230;2022-11-20T15:14:14;30.03;;;13.93;;
7729;SDS011;3908;52.310;7.230;2022-11-20T15:17:01;27.50;;;13.90;;
7729;SDS011;3908;52.310;7.230;2022-11-20T15:19:48;24.27;;;12.03;;
7729;SDS011;3908;52.310;7.230;2022-11-20T15:22:36;21.23;;;12.20;;
7729;SDS011;3908;52.310;7.230;2022-11-20T15:25:24;23.13;;;11.90;;
7729;SDS011;3908;52.310;7.230;2022-11-20T15:28:13;22.13;;;12.10;;
7729;SDS011;3908;52.310;7.230;2022-11-20T15:31:04;29.30;;;12.97;;
7729;SDS011;3908;52.310;7.230;2022-11-20T15:33:51;20.80;;;12.40;;
7729;SDS011;3908;52.310;7.230;2022-11-20T15:36:38;22.87;;;12.70;;
7729;SDS011;3908;52.310;7.230;2022-11-20T15:39:25;20.97;;;10.77;;
7729;SDS011;3908;52.310;7.230;2022-11-20T15:42:14;24.33;;;12.87;;
7729;SDS011;3908;52.310;7.230;2022-11-20T15:45:01;20.83;;;12.70;;
7729;SDS011;3908;52.310;7.230;2022-11-20T15:47:48;25.53;;;13.13;;
7729;SDS011;3908;52.310;7.230;2022-11-20T15:50:37;25.90;;;11.97;;
7729;SDS011;3908;52.310;7.230;2022-11-20T15:53:28;20.97;;;11.70;;
7729;SDS011;3908;52.310;7.230;2022-11-20T15:56:18;21.43;;;12.27;;
7729;SDS011;3908;52.310;7.230;2022-11-20T15:59:07;21.40;;;12.97;;
7729;SDS011;3908;52.310;7.230;2022-11-20T16:01:54;23.00;;;12.40;;
7729;SDS011;3908;52.310;7.230;2022-11-20T16:04:41;22.27;;;13.03;;
7729;SDS011;3908;52.310;7.230;2022-11-20T16:07:28;23.30;;;12.13;;
7729;SDS011;3908;52.310;7.230;2022-11-20T16:10:15;24.50;;;13.93;;
7729;SDS011;3908;52.310;7.230;2022-11-20T16:13:02;23.50;;;13.67;;
7729;SDS011;3908;52.310;7.230;2022-11-20T16:16:10;24.47;;;13.83;;
7729;SDS011;3908;52.310;7.230;2022-11-20T16:19:05;24.33;;;13.80;;
7729;SDS011;3908;52.310;7.230;2022-11-20T16:21:52;24.70;;;13.57;;
7729;SDS011;3908;52.310;7.230;2022-11-20T16:24:39;25.23;;;14.97;;
7729;SDS011;3908;52.310;7.230;2022-11-20T16:27:26;29.47;;;14.30;;
7729;SDS011;3908;52.310;7.230;2022-11-20T16:30:13;26.73;;;16.23;;
7729;SDS011;3908;52.310;7.230;2022-11-20T16:33:02;28.27;;;17.37;;
7729;SDS011;3908;52.310;7.230;2022-11-20T16:35:49;36.00;;;16.33;;
7729;SDS011;3908;52.310;7.230;2022-11-20T16:38:36;30.50;;;17.27;;
7729;SDS011;3908;52.310;7.230;2022-11-20T16:41:24;31.10;;;16.20;;
7729;SDS011;3908;52.310;7.230;2022-11-20T16:44:12;31.47;;;17.70;;
7729;SDS011;3908;52.310;7.230;2022-11-20T16:46:59;31.77;;;16.77;;
7729;SDS011;3908;52.310;7.230;2022-11-20T16:49:50;34.00;;;18.23;;
7729;SDS011;3908;52.310;7.230;2022-11-20T16:52:40;36.07;;;18.70;;
7729;SDS011;3908;52.310;7.230;2022-11-20T16:55:27;32.67;;;17.83;;
7729;SDS011;3908;52.310;7.230;2022-11-20T16:58:14;33.27;;;19.13;;
7729;SDS011;3908;52.310;7.230;2022-11-20T17:01:04;43.70;;;19.70;;
7729;SDS011;3908;52.310;7.230;2022-11-20T17:03:55;38.70;;;17.80;;
7729;SDS011;3908;52.310;7.230;2022-11-20T17:06:45;33.63;;;18.03;;
7729;SDS011;3908;52.310;7.230;2022-11-20T17:09:35;40.20;;;18.83;;
7729;SDS011;3908;52.310;7.230;2022-11-20T17:12:22;34.77;;;18.90;;
7729;SDS011;3908;52.310;7.230;2022-11-20T17:15:09;36.70;;;19.93;;